createdAt,value
2022-12-31T00:02:04.644Z,99856.34
2022-12-31T00:07:07.359Z,99844.55
2022-12-31T00:12:10.125Z,99821.02
2022-12-31T00:17:12.912Z,99806.68
2022-12-31T00:22:15.599Z,99806.48
2022-12-31T00:27:18.388Z,99799.98
2022-12-31T00:32:21.113Z,99807.20
2022-12-31T00:37:23.859Z,99807.81
2022-12-31T00:42:26.617Z,99795.40
2022-12-31T00:47:29.336Z,99772.63
2022-12-31T00:52:32.045Z,99763.93
2022-12-31T00:57:34.733Z,99756.25
2022-12-31T01:02:37.609Z,99754.80
2022-12-31T01:07:40.589Z,99747.96
2022-12-31T01:12:43.283Z,99764.20
2022-12-31T01:17:46.107Z,99750.53
2022-12-31T01:22:48.797Z,99735.91
2022-12-31T01:27:51.495Z,99733.13
2022-12-31T01:32:54.266Z,99735.25
2022-12-31T01:37:56.991Z,99736.29
2022-12-31T01:42:59.756Z,99723.61
2022-12-31T01:48:02.592Z,99704.34
2022-12-31T01:53:07.399Z,99703.16
2022-12-31T01:58:20.954Z,99703.06
2022-12-31T02:03:25.542Z,99711.65
2022-12-31T02:08:28.561Z,99708.02
2022-12-31T02:13:31.425Z,99718.20
2022-12-31T02:18:56.292Z,99734.47
2022-12-31T02:24:18.043Z,99721.67
2022-12-31T02:29:53.690Z,99713.77
2022-12-31T02:35:03.232Z,99702.47
2022-12-31T02:40:11.680Z,99700.58
2022-12-31T02:45:20.320Z,99696.61
2022-12-31T02:50:55.558Z,99697.81
2022-12-31T02:56:09.479Z,99701.27
2022-12-31T03:01:37.123Z,99706.27
2022-12-31T03:06:41.716Z,99691.96
2022-12-31T03:12:03.212Z,99678.50
2022-12-31T03:17:06.025Z,99679.00
2022-12-31T03:22:28.066Z,99663.70
2022-12-31T03:27:30.828Z,99666.77
2022-12-31T03:32:33.541Z,99677.48
2022-12-31T03:37:36.306Z,99680.60
2022-12-31T03:42:39.075Z,99674.30
2022-12-31T03:47:42.246Z,99659.77
2022-12-31T03:52:45.577Z,99661.17
2022-12-31T03:57:48.211Z,99663.45
2022-12-31T04:02:51.524Z,99667.85
2022-12-31T04:07:55.873Z,99662.27
2022-12-31T04:13:00.344Z,99667.39
2022-12-31T04:18:03.189Z,99674.30
2022-12-31T04:23:05.904Z,99665.88
2022-12-31T04:28:08.607Z,99649.19
2022-12-31T04:33:11.363Z,99650.32
2022-12-31T04:38:14.146Z,99657.98
2022-12-31T04:43:16.823Z,99667.96
2022-12-31T04:48:20.045Z,99672.11
2022-12-31T04:53:24.596Z,99670.29
2022-12-31T04:58:27.681Z,99668.70
2022-12-31T05:03:31.014Z,99653.58
2022-12-31T05:08:34.121Z,99646.60
2022-12-31T05:13:36.882Z,99644.95
2022-12-31T05:18:39.677Z,99645.80
2022-12-31T05:23:42.346Z,99653.19
2022-12-31T05:28:45.070Z,99652.64
2022-12-31T05:33:47.895Z,99653.16
2022-12-31T05:38:50.572Z,99649.60
2022-12-31T05:43:53.298Z,99645.17
2022-12-31T05:48:56.000Z,99642.83
2022-12-31T05:53:58.760Z,99643.02
2022-12-31T05:59:01.493Z,99643.81
2022-12-31T06:04:04.411Z,99639.09
2022-12-31T06:09:07.173Z,99642.53
2022-12-31T06:14:10.281Z,99652.70
2022-12-31T06:19:12.971Z,99655.20
2022-12-31T06:24:15.704Z,99645.95
2022-12-31T06:29:18.522Z,99645.30
2022-12-31T06:34:21.315Z,99643.59
2022-12-31T06:39:24.052Z,99641.69
2022-12-31T06:44:26.787Z,99646.10
2022-12-31T06:49:29.474Z,99660.88
2022-12-31T06:54:32.363Z,99675.53
2022-12-31T06:59:35.451Z,99668.75
2022-12-31T07:05:13.050Z,99679.61
2022-12-31T07:11:01.604Z,99693.38
2022-12-31T07:16:32.302Z,99690.61
2022-12-31T07:21:40.775Z,99699.98
2022-12-31T07:27:01.772Z,99706.23
2022-12-31T07:32:32.266Z,99710.27
2022-12-31T07:37:48.184Z,99716.34
2022-12-31T07:43:12.367Z,99716.31
2022-12-31T07:48:24.980Z,99728.20
2022-12-31T07:53:28.520Z,99738.30
2022-12-31T07:59:00.791Z,99741.30
2022-12-31T08:04:23.461Z,99742.69
2022-12-31T08:09:32.115Z,99738.09
2022-12-31T08:14:43.241Z,99750.31
2022-12-31T08:19:46.694Z,99754.28
2022-12-31T08:25:12.605Z,99744.52
2022-12-31T08:30:17.721Z,99750.71
2022-12-31T08:35:45.422Z,99759.72
2022-12-31T08:40:58.741Z,99772.02
2022-12-31T08:46:01.683Z,99776.66
2022-12-31T08:51:05.396Z,99781.79
2022-12-31T08:56:21.476Z,99782.08
2022-12-31T09:01:28.033Z,99779.75
2022-12-31T09:07:03.952Z,99774.92
2022-12-31T09:12:25.394Z,99766.02
2022-12-31T09:17:47.156Z,99774.83
2022-12-31T09:22:51.354Z,99767.64
2022-12-31T09:28:09.458Z,99755.91
2022-12-31T09:33:25.671Z,99760.44
2022-12-31T09:38:52.558Z,99757.50
2022-12-31T09:44:13.712Z,99753.05
2022-12-31T09:49:38.547Z,99734.19
2022-12-31T09:55:10.043Z,99732.46
2022-12-31T10:01:01.148Z,99736.44
2022-12-31T10:06:28.537Z,99722.33
2022-12-31T10:11:59.157Z,99722.30
2022-12-31T10:17:20.575Z,99700.73
2022-12-31T10:23:00.597Z,99692.23
2022-12-31T10:28:41.525Z,99676.39
2022-12-31T10:34:13.206Z,99657.60
2022-12-31T10:39:26.972Z,99657.76
2022-12-31T10:44:41.966Z,99645.33
2022-12-31T10:50:29.416Z,99641.93
2022-12-31T10:56:19.566Z,99633.44
2022-12-31T11:01:34.478Z,99629.22
2022-12-31T11:06:46.472Z,99622.83
2022-12-31T11:11:58.459Z,99608.34
2022-12-31T11:17:34.580Z,99600.06
2022-12-31T11:23:01.611Z,99588.05
2022-12-31T11:28:12.831Z,99576.38
2022-12-31T11:33:25.296Z,99556.28
2022-12-31T11:38:38.640Z,99540.09
2022-12-31T11:44:13.282Z,99536.67
2022-12-31T11:49:29.553Z,99521.52
2022-12-31T11:55:00.572Z,99522.11
2022-12-31T12:00:09.646Z,99509.36
2022-12-31T12:05:15.262Z,99508.39
2022-12-31T12:10:35.721Z,99488.95
2022-12-31T12:15:43.312Z,99466.73
2022-12-31T12:20:46.569Z,99477.09
2022-12-31T12:25:49.382Z,99482.50
2022-12-31T12:31:01.468Z,99466.37
2022-12-31T12:36:09.871Z,99461.04
2022-12-31T12:41:26.520Z,99453.71
2022-12-31T12:46:41.573Z,99443.80
2022-12-31T12:52:14.089Z,99444.34
2022-12-31T12:57:46.381Z,99437.09
2022-12-31T13:03:15.244Z,99437.35
2022-12-31T13:08:30.099Z,99418.73
2022-12-31T13:14:01.951Z,99425.77
2022-12-31T13:19:37.306Z,99427.20
2022-12-31T13:24:52.568Z,99432.02
2022-12-31T13:30:00.094Z,99412.06
2022-12-31T13:35:41.696Z,99420.53
2022-12-31T13:41:09.652Z,99437.95
2022-12-31T13:46:19.458Z,99459.63
2022-12-31T13:51:34.972Z,99461.61
2022-12-31T13:56:40.997Z,99455.94
2022-12-31T14:01:56.149Z,99459.20
2022-12-31T14:07:16.851Z,99473.89
2022-12-31T14:12:53.244Z,99484.88
2022-12-31T14:18:11.009Z,99480.00
2022-12-31T14:23:22.645Z,99479.55
2022-12-31T14:28:46.399Z,99483.16
2022-12-31T14:34:05.412Z,99494.34
2022-12-31T14:39:32.977Z,99500.88
2022-12-31T14:44:57.939Z,99484.17
2022-12-31T14:50:14.052Z,99465.89
2022-12-31T14:55:22.963Z,99468.31
2022-12-31T15:00:30.824Z,99476.67
2022-12-31T15:05:51.845Z,99486.26
2022-12-31T15:11:16.332Z,99495.72
2022-12-31T15:16:40.227Z,99498.30
2022-12-31T15:22:18.462Z,99489.88
2022-12-31T15:27:33.203Z,99498.52
2022-12-31T15:32:41.034Z,99505.86
2022-12-31T15:37:43.766Z,99507.37
2022-12-31T15:42:52.307Z,99505.13
2022-12-31T15:47:58.117Z,99520.98
2022-12-31T15:53:04.181Z,99529.95
2022-12-31T15:58:16.872Z,99525.07
2022-12-31T16:03:23.118Z,99523.86
2022-12-31T16:08:33.318Z,99524.39
2022-12-31T16:13:42.159Z,99521.91
2022-12-31T16:18:45.311Z,99528.52
2022-12-31T16:23:53.215Z,99536.67
2022-12-31T16:29:00.291Z,99533.95
2022-12-31T16:34:12.377Z,99523.95
2022-12-31T16:39:24.637Z,99512.61
2022-12-31T16:44:29.223Z,99529.25
2022-12-31T16:49:35.084Z,99536.11
2022-12-31T16:54:40.562Z,99534.23
2022-12-31T16:59:48.277Z,99546.31
2022-12-31T17:04:55.978Z,99557.10
2022-12-31T17:10:23.991Z,99558.39
2022-12-31T17:15:39.399Z,99555.04
2022-12-31T17:20:42.184Z,99554.17
2022-12-31T17:25:44.941Z,99562.66
2022-12-31T17:30:47.755Z,99568.97
2022-12-31T17:36:14.377Z,99561.10
2022-12-31T17:41:25.035Z,99567.71
2022-12-31T17:46:27.916Z,99568.52
2022-12-31T17:51:30.779Z,99575.54
2022-12-31T17:56:33.527Z,99581.88
2022-12-31T18:01:36.435Z,99574.13
2022-12-31T18:06:39.217Z,99562.92
2022-12-31T18:11:42.426Z,99565.27
2022-12-31T18:16:45.431Z,99569.51
2022-12-31T18:21:48.071Z,99569.02
2022-12-31T18:26:51.149Z,99584.27
2022-12-31T18:31:53.983Z,99590.52
2022-12-31T18:36:57.137Z,99565.89
2022-12-31T18:41:59.765Z,99562.14
2022-12-31T18:47:02.513Z,99554.55
2022-12-31T18:52:05.774Z,99562.02
2022-12-31T18:57:13.850Z,99561.62
2022-12-31T19:02:19.964Z,99566.19
2022-12-31T19:07:22.717Z,99575.11
2022-12-31T19:12:25.428Z,99579.73
2022-12-31T19:17:28.205Z,99580.16
2022-12-31T19:22:30.962Z,99583.73
2022-12-31T19:27:33.727Z,99582.88
2022-12-31T19:32:36.438Z,99580.84
2022-12-31T19:37:40.359Z,99588.02
2022-12-31T19:42:44.472Z,99590.23
2022-12-31T19:47:48.079Z,99591.02
2022-12-31T19:52:53.103Z,99588.81
2022-12-31T19:57:55.920Z,99590.23
2022-12-31T20:02:58.933Z,99589.73
2022-12-31T20:08:02.038Z,99573.52
2022-12-31T20:13:05.499Z,99593.55
2022-12-31T20:18:08.204Z,99591.37
2022-12-31T20:23:10.887Z,99596.64
2022-12-31T20:28:13.573Z,99600.98
2022-12-31T20:33:19.209Z,99594.27
2022-12-31T20:38:22.217Z,99592.98
2022-12-31T20:43:24.904Z,99592.67
2022-12-31T20:48:27.587Z,99587.24
2022-12-31T20:53:30.330Z,99577.70
2022-12-31T20:58:33.777Z,99589.21
2022-12-31T21:04:04.843Z,99571.90
2022-12-31T21:09:04.571Z,99575.79
2022-12-31T21:14:07.398Z,99570.31
2022-12-31T21:19:10.180Z,99565.33
2022-12-31T21:24:12.905Z,99555.45
2022-12-31T21:29:15.579Z,99569.30
2022-12-31T21:34:18.266Z,99569.45
2022-12-31T21:39:21.263Z,99578.14
2022-12-31T21:44:25.021Z,99585.44
2022-12-31T21:49:27.705Z,99577.45
2022-12-31T21:54:49.245Z,99556.90
2022-12-31T22:00:40.458Z,99552.99
2022-12-31T22:05:33.400Z,99567.95
2022-12-31T22:10:37.411Z,99574.40
2022-12-31T22:15:48.203Z,99582.35
2022-12-31T22:21:01.402Z,99585.11
2022-12-31T22:26:04.914Z,99594.80
2022-12-31T22:31:12.402Z,99597.02
2022-12-31T22:36:18.404Z,99605.11
2022-12-31T22:41:22.671Z,99596.59
2022-12-31T22:46:28.123Z,99590.05
2022-12-31T22:51:55.848Z,99579.59
2022-12-31T22:56:55.033Z,99570.20
2022-12-31T23:01:57.723Z,99569.45
2022-12-31T23:07:00.625Z,99578.05
2022-12-31T23:12:06.039Z,99584.98
2022-12-31T23:17:34.427Z,99594.77
2022-12-31T23:22:55.882Z,99605.27
2022-12-31T23:27:58.660Z,99593.05
2022-12-31T23:33:01.376Z,99585.80
2022-12-31T23:38:04.113Z,99583.52
2022-12-31T23:43:08.926Z,99584.21
2022-12-31T23:48:11.657Z,99588.56
2022-12-31T23:53:14.389Z,99579.64
2022-12-31T23:58:17.117Z,99599.73
